sensor_id;sensor_type;location;lat;lon;timestamp;temperature;humidity
66670;DHT22;53568;52.164;4.472;2022-10-31T00:00:49;15.70;72.68
66670;DHT22;53568;52.164;4.472;2022-10-31T00:03:15;15.75;72.69
66670;DHT22;53568;52.164;4.472;2022-10-31T00:05:43;15.77;72.78
66670;DHT22;53568;52.164;4.472;2022-10-31T00:08:10;15.81;72.61
66670;DHT22;53568;52.164;4.472;2022-10-31T00:10:40;15.78;72.61
66670;DHT22;53568;52.164;4.472;2022-10-31T00:13:06;15.77;72.77
66670;DHT22;53568;52.164;4.472;2022-10-31T00:15:34;15.80;72.61
66670;DHT22;53568;52.164;4.472;2022-10-31T00:17:59;15.71;72.67
66670;DHT22;53568;52.164;4.472;2022-10-31T00:20:25;15.70;72.84
66670;DHT22;53568;52.164;4.472;2022-10-31T00:22:51;15.75;72.63
66670;DHT22;53568;52.164;4.472;2022-10-31T00:25:16;15.77;72.61
66670;DHT22;53568;52.164;4.472;2022-10-31T00:27:41;15.64;72.76
66670;DHT22;53568;52.164;4.472;2022-10-31T00:30:07;15.61;72.93
66670;DHT22;53568;52.164;4.472;2022-10-31T00:32:33;15.64;73.03
66670;DHT22;53568;52.164;4.472;2022-10-31T00:34:58;15.68;72.88
66670;DHT22;53568;52.164;4.472;2022-10-31T00:37:24;15.71;72.78
66670;DHT22;53568;52.164;4.472;2022-10-31T00:39:49;15.68;72.73
66670;DHT22;53568;52.164;4.472;2022-10-31T00:42:15;15.65;72.89
66670;DHT22;53568;52.164;4.472;2022-10-31T00:44:41;15.61;72.92
66670;DHT22;53568;52.164;4.472;2022-10-31T00:47:06;15.62;72.96
66670;DHT22;53568;52.164;4.472;2022-10-31T00:49:32;15.62;72.81
66670;DHT22;53568;52.164;4.472;2022-10-31T00:51:57;15.58;73.13
66670;DHT22;53568;52.164;4.472;2022-10-31T00:54:23;15.58;72.99
66670;DHT22;53568;52.164;4.472;2022-10-31T00:56:48;15.53;73.10
66670;DHT22;53568;52.164;4.472;2022-10-31T00:59:14;15.57;73.06
66670;DHT22;53568;52.164;4.472;2022-10-31T01:01:39;15.50;73.32
66670;DHT22;53568;52.164;4.472;2022-10-31T01:04:04;15.51;73.36
66670;DHT22;53568;52.164;4.472;2022-10-31T01:06:30;15.53;73.36
66670;DHT22;53568;52.164;4.472;2022-10-31T01:08:55;15.51;73.46
66670;DHT22;53568;52.164;4.472;2022-10-31T01:11:22;15.51;73.54
66670;DHT22;53568;52.164;4.472;2022-10-31T01:13:51;15.54;73.42
66670;DHT22;53568;52.164;4.472;2022-10-31T01:16:19;15.55;73.35
66670;DHT22;53568;52.164;4.472;2022-10-31T01:18:46;15.57;73.25
66670;DHT22;53568;52.164;4.472;2022-10-31T01:21:14;15.57;73.28
66670;DHT22;53568;52.164;4.472;2022-10-31T01:23:40;15.57;73.31
66670;DHT22;53568;52.164;4.472;2022-10-31T01:26:18;15.61;73.27
66670;DHT22;53568;52.164;4.472;2022-10-31T01:28:55;15.61;73.10
66670;DHT22;53568;52.164;4.472;2022-10-31T01:31:25;15.61;73.25
66670;DHT22;53568;52.164;4.472;2022-10-31T01:33:51;15.60;73.23
66670;DHT22;53568;52.164;4.472;2022-10-31T01:36:24;15.55;73.26
66670;DHT22;53568;52.164;4.472;2022-10-31T01:38:51;15.62;73.24
66670;DHT22;53568;52.164;4.472;2022-10-31T01:41:22;15.60;73.09
66670;DHT22;53568;52.164;4.472;2022-10-31T01:44:03;15.58;73.18
66670;DHT22;53568;52.164;4.472;2022-10-31T01:49:54;15.54;73.35
66670;DHT22;53568;52.164;4.472;2022-10-31T01:52:38;15.53;73.43
66670;DHT22;53568;52.164;4.472;2022-10-31T01:55:32;15.53;73.39
66670;DHT22;53568;52.164;4.472;2022-10-31T01:58:04;15.54;73.40
66670;DHT22;53568;52.164;4.472;2022-10-31T02:00:31;15.53;73.50
66670;DHT22;53568;52.164;4.472;2022-10-31T02:02:57;15.55;73.38
66670;DHT22;53568;52.164;4.472;2022-10-31T02:05:27;15.54;73.48
66670;DHT22;53568;52.164;4.472;2022-10-31T02:08:02;15.57;73.46
66670;DHT22;53568;52.164;4.472;2022-10-31T02:10:32;15.49;73.62
66670;DHT22;53568;52.164;4.472;2022-10-31T02:13:04;15.46;73.78
66670;DHT22;53568;52.164;4.472;2022-10-31T02:15:32;15.46;73.75
66670;DHT22;53568;52.164;4.472;2022-10-31T02:17:59;15.41;73.80
66670;DHT22;53568;52.164;4.472;2022-10-31T02:34:17;15.38;74.27
66670;DHT22;53568;52.164;4.472;2022-10-31T02:36:55;15.36;74.25
66670;DHT22;53568;52.164;4.472;2022-10-31T02:39:29;15.37;74.21
66670;DHT22;53568;52.164;4.472;2022-10-31T02:44:39;15.30;74.13
66670;DHT22;53568;52.164;4.472;2022-10-31T02:47:27;15.33;74.05
66670;DHT22;53568;52.164;4.472;2022-10-31T02:50:23;15.30;73.97
66670;DHT22;53568;52.164;4.472;2022-10-31T02:52:52;15.28;73.98
66670;DHT22;53568;52.164;4.472;2022-10-31T02:57:59;15.31;73.76
66670;DHT22;53568;52.164;4.472;2022-10-31T03:00:27;15.27;73.84
66670;DHT22;53568;52.164;4.472;2022-10-31T03:03:08;15.22;74.09
66670;DHT22;53568;52.164;4.472;2022-10-31T03:08:33;15.10;74.44
66670;DHT22;53568;52.164;4.472;2022-10-31T03:11:05;15.13;74.46
66670;DHT22;53568;52.164;4.472;2022-10-31T03:16:39;15.16;74.33
66670;DHT22;53568;52.164;4.472;2022-10-31T03:19:09;15.14;74.18
66670;DHT22;53568;52.164;4.472;2022-10-31T03:21:44;15.14;74.05
66670;DHT22;53568;52.164;4.472;2022-10-31T03:24:13;15.11;74.10
66670;DHT22;53568;52.164;4.472;2022-10-31T03:26:50;15.11;74.13
66670;DHT22;53568;52.164;4.472;2022-10-31T03:29:20;15.10;74.09
66670;DHT22;53568;52.164;4.472;2022-10-31T03:34:56;15.00;74.25
66670;DHT22;53568;52.164;4.472;2022-10-31T03:37:27;14.96;74.37
66670;DHT22;53568;52.164;4.472;2022-10-31T03:39:55;14.97;74.47
66670;DHT22;53568;52.164;4.472;2022-10-31T03:42:25;14.99;74.32
66670;DHT22;53568;52.164;4.472;2022-10-31T03:47:22;14.99;74.48
66670;DHT22;53568;52.164;4.472;2022-10-31T03:49:48;14.96;74.48
66670;DHT22;53568;52.164;4.472;2022-10-31T03:55:19;14.89;74.95
66670;DHT22;53568;52.164;4.472;2022-10-31T03:58:03;14.87;74.89
66670;DHT22;53568;52.164;4.472;2022-10-31T04:00:35;14.87;74.74
66670;DHT22;53568;52.164;4.472;2022-10-31T04:03:19;14.83;74.73
66670;DHT22;53568;52.164;4.472;2022-10-31T04:05:49;14.83;74.75
66670;DHT22;53568;52.164;4.472;2022-10-31T04:08:21;14.83;74.75
66670;DHT22;53568;52.164;4.472;2022-10-31T04:10:51;14.82;74.78
66670;DHT22;53568;52.164;4.472;2022-10-31T04:13:24;14.82;74.68
66670;DHT22;53568;52.164;4.472;2022-10-31T04:15:54;14.89;74.62
66670;DHT22;53568;52.164;4.472;2022-10-31T04:18:22;14.82;74.55
66670;DHT22;53568;52.164;4.472;2022-10-31T04:20:48;14.82;74.65
66670;DHT22;53568;52.164;4.472;2022-10-31T04:23:26;14.82;74.65
66670;DHT22;53568;52.164;4.472;2022-10-31T04:25:51;14.83;74.61
66670;DHT22;53568;52.164;4.472;2022-10-31T04:28:18;14.82;74.57
66670;DHT22;53568;52.164;4.472;2022-10-31T04:30:43;14.77;74.45
66670;DHT22;53568;52.164;4.472;2022-10-31T04:33:09;14.75;74.53
66670;DHT22;53568;52.164;4.472;2022-10-31T04:35:34;14.75;74.62
66670;DHT22;53568;52.164;4.472;2022-10-31T04:38:01;14.76;74.64
66670;DHT22;53568;52.164;4.472;2022-10-31T04:40:26;14.71;74.67
66670;DHT22;53568;52.164;4.472;2022-10-31T04:42:52;14.72;74.67
66670;DHT22;53568;52.164;4.472;2022-10-31T04:45:17;14.76;74.69
66670;DHT22;53568;52.164;4.472;2022-10-31T04:47:43;14.71;75.02
66670;DHT22;53568;52.164;4.472;2022-10-31T04:50:09;14.63;75.26
66670;DHT22;53568;52.164;4.472;2022-10-31T04:52:42;14.55;75.81
66670;DHT22;53568;52.164;4.472;2022-10-31T04:55:10;14.56;76.00
66670;DHT22;53568;52.164;4.472;2022-10-31T04:57:47;14.58;75.85
66670;DHT22;53568;52.164;4.472;2022-10-31T05:00:16;14.58;75.86
66670;DHT22;53568;52.164;4.472;2022-10-31T05:02:43;14.53;76.18
66670;DHT22;53568;52.164;4.472;2022-10-31T05:05:09;14.53;75.97
66670;DHT22;53568;52.164;4.472;2022-10-31T05:07:39;14.53;76.11
66670;DHT22;53568;52.164;4.472;2022-10-31T05:10:05;14.48;76.32
66670;DHT22;53568;52.164;4.472;2022-10-31T05:12:31;14.46;76.33
66670;DHT22;53568;52.164;4.472;2022-10-31T05:14:56;14.39;76.62
66670;DHT22;53568;52.164;4.472;2022-10-31T05:17:22;14.36;76.49
66670;DHT22;53568;52.164;4.472;2022-10-31T05:19:48;14.32;76.55
66670;DHT22;53568;52.164;4.472;2022-10-31T05:22:13;14.25;76.91
66670;DHT22;53568;52.164;4.472;2022-10-31T05:24:39;14.18;77.15
66670;DHT22;53568;52.164;4.472;2022-10-31T05:27:04;14.19;77.05
66670;DHT22;53568;52.164;4.472;2022-10-31T05:29:29;14.18;76.71
66670;DHT22;53568;52.164;4.472;2022-10-31T05:31:59;14.17;76.60
66670;DHT22;53568;52.164;4.472;2022-10-31T05:34:24;14.07;76.77
66670;DHT22;53568;52.164;4.472;2022-10-31T05:36:50;14.02;77.22
66670;DHT22;53568;52.164;4.472;2022-10-31T05:39:15;14.00;77.36
66670;DHT22;53568;52.164;4.472;2022-10-31T05:41:41;13.92;77.81
66670;DHT22;53568;52.164;4.472;2022-10-31T05:44:06;13.89;77.98
66670;DHT22;53568;52.164;4.472;2022-10-31T05:46:32;13.88;77.94
66670;DHT22;53568;52.164;4.472;2022-10-31T05:48:57;13.81;78.22
66670;DHT22;53568;52.164;4.472;2022-10-31T05:51:23;13.81;78.34
66670;DHT22;53568;52.164;4.472;2022-10-31T05:53:48;13.77;78.22
66670;DHT22;53568;52.164;4.472;2022-10-31T05:56:13;13.70;78.57
66670;DHT22;53568;52.164;4.472;2022-10-31T05:58:39;13.67;78.61
66670;DHT22;53568;52.164;4.472;2022-10-31T06:01:05;13.65;78.57
66670;DHT22;53568;52.164;4.472;2022-10-31T06:03:30;13.60;78.70
66670;DHT22;53568;52.164;4.472;2022-10-31T06:05:56;13.57;78.82
66670;DHT22;53568;52.164;4.472;2022-10-31T06:08:22;13.55;79.04
66670;DHT22;53568;52.164;4.472;2022-10-31T06:10:47;13.61;78.85
66670;DHT22;53568;52.164;4.472;2022-10-31T06:13:12;13.60;78.47
66670;DHT22;53568;52.164;4.472;2022-10-31T06:15:38;13.54;78.61
66670;DHT22;53568;52.164;4.472;2022-10-31T06:18:05;13.53;78.65
66670;DHT22;53568;52.164;4.472;2022-10-31T06:20:32;13.51;78.57
66670;DHT22;53568;52.164;4.472;2022-10-31T06:22:58;13.50;78.59
66670;DHT22;53568;52.164;4.472;2022-10-31T06:25:24;13.47;78.75
66670;DHT22;53568;52.164;4.472;2022-10-31T06:27:50;13.48;78.70
66670;DHT22;53568;52.164;4.472;2022-10-31T06:30:15;13.47;78.71
66670;DHT22;53568;52.164;4.472;2022-10-31T06:32:42;13.47;78.50
66670;DHT22;53568;52.164;4.472;2022-10-31T06:35:09;13.41;78.75
66670;DHT22;53568;52.164;4.472;2022-10-31T06:37:34;13.40;78.92
66670;DHT22;53568;52.164;4.472;2022-10-31T06:40:00;13.44;79.02
66670;DHT22;53568;52.164;4.472;2022-10-31T06:42:26;13.47;78.86
66670;DHT22;53568;52.164;4.472;2022-10-31T06:44:51;13.48;78.81
66670;DHT22;53568;52.164;4.472;2022-10-31T06:47:17;13.47;78.88
66670;DHT22;53568;52.164;4.472;2022-10-31T06:49:42;13.44;79.03
66670;DHT22;53568;52.164;4.472;2022-10-31T06:52:08;13.46;79.19
66670;DHT22;53568;52.164;4.472;2022-10-31T06:54:33;13.48;79.51
66670;DHT22;53568;52.164;4.472;2022-10-31T06:56:58;13.48;79.53
66670;DHT22;53568;52.164;4.472;2022-10-31T06:59:24;13.55;79.13
66670;DHT22;53568;52.164;4.472;2022-10-31T07:01:50;13.51;79.30
66670;DHT22;53568;52.164;4.472;2022-10-31T07:04:15;13.51;79.33
66670;DHT22;53568;52.164;4.472;2022-10-31T07:06:41;13.48;79.81
66670;DHT22;53568;52.164;4.472;2022-10-31T07:09:06;13.48;79.67
66670;DHT22;53568;52.164;4.472;2022-10-31T07:11:32;13.50;79.74
66670;DHT22;53568;52.164;4.472;2022-10-31T07:13:58;13.54;79.80
66670;DHT22;53568;52.164;4.472;2022-10-31T07:16:24;13.61;79.85
66670;DHT22;53568;52.164;4.472;2022-10-31T07:18:49;13.67;79.66
66670;DHT22;53568;52.164;4.472;2022-10-31T07:21:15;13.71;79.54
66670;DHT22;53568;52.164;4.472;2022-10-31T07:23:41;13.74;79.43
66670;DHT22;53568;52.164;4.472;2022-10-31T07:26:07;13.81;79.29
66670;DHT22;53568;52.164;4.472;2022-10-31T07:28:33;13.77;79.23
66670;DHT22;53568;52.164;4.472;2022-10-31T07:30:58;13.68;79.46
66670;DHT22;53568;52.164;4.472;2022-10-31T07:33:24;13.64;80.06
66670;DHT22;53568;52.164;4.472;2022-10-31T07:35:51;13.63;80.38
66670;DHT22;53568;52.164;4.472;2022-10-31T07:38:17;13.70;80.29
66670;DHT22;53568;52.164;4.472;2022-10-31T07:40:43;13.77;80.10
66670;DHT22;53568;52.164;4.472;2022-10-31T07:43:12;13.79;79.73
66670;DHT22;53568;52.164;4.472;2022-10-31T07:45:38;13.79;79.72
66670;DHT22;53568;52.164;4.472;2022-10-31T07:48:03;13.73;79.89
66670;DHT22;53568;52.164;4.472;2022-10-31T07:50:31;13.73;80.39
66670;DHT22;53568;52.164;4.472;2022-10-31T07:53:02;13.75;80.42
66670;DHT22;53568;52.164;4.472;2022-10-31T07:55:29;13.81;79.88
66670;DHT22;53568;52.164;4.472;2022-10-31T07:58:01;13.81;80.26
66670;DHT22;53568;52.164;4.472;2022-10-31T08:00:28;13.77;80.24
66670;DHT22;53568;52.164;4.472;2022-10-31T08:03:01;13.78;80.24
66670;DHT22;53568;52.164;4.472;2022-10-31T08:05:28;13.84;80.24
66670;DHT22;53568;52.164;4.472;2022-10-31T08:07:54;13.84;80.26
66670;DHT22;53568;52.164;4.472;2022-10-31T08:10:20;13.89;80.36
66670;DHT22;53568;52.164;4.472;2022-10-31T08:12:45;14.01;79.96
66670;DHT22;53568;52.164;4.472;2022-10-31T08:15:11;14.02;79.97
66670;DHT22;53568;52.164;4.472;2022-10-31T08:17:38;14.08;80.14
66670;DHT22;53568;52.164;4.472;2022-10-31T08:20:04;14.24;80.19
66670;DHT22;53568;52.164;4.472;2022-10-31T08:22:30;14.36;80.08
66670;DHT22;53568;52.164;4.472;2022-10-31T08:24:56;14.36;79.45
66670;DHT22;53568;52.164;4.472;2022-10-31T08:27:22;14.38;79.10
66670;DHT22;53568;52.164;4.472;2022-10-31T08:29:48;14.39;78.67
66670;DHT22;53568;52.164;4.472;2022-10-31T08:32:13;14.31;78.87
66670;DHT22;53568;52.164;4.472;2022-10-31T08:34:39;14.33;78.82
66670;DHT22;53568;52.164;4.472;2022-10-31T08:37:04;14.38;78.76
66670;DHT22;53568;52.164;4.472;2022-10-31T08:39:30;14.36;78.84
66670;DHT22;53568;52.164;4.472;2022-10-31T08:41:55;14.32;78.84
66670;DHT22;53568;52.164;4.472;2022-10-31T08:44:21;14.38;78.77
66670;DHT22;53568;52.164;4.472;2022-10-31T08:46:47;14.39;78.78
66670;DHT22;53568;52.164;4.472;2022-10-31T08:49:12;14.45;78.98
66670;DHT22;53568;52.164;4.472;2022-10-31T08:51:38;14.46;78.79
66670;DHT22;53568;52.164;4.472;2022-10-31T08:54:03;14.48;78.93
66670;DHT22;53568;52.164;4.472;2022-10-31T08:56:29;14.48;78.67
66670;DHT22;53568;52.164;4.472;2022-10-31T08:58:54;14.41;79.22
66670;DHT22;53568;52.164;4.472;2022-10-31T09:01:20;14.41;79.54
66670;DHT22;53568;52.164;4.472;2022-10-31T09:03:45;14.39;79.90
66670;DHT22;53568;52.164;4.472;2022-10-31T09:06:11;14.41;79.68
66670;DHT22;53568;52.164;4.472;2022-10-31T09:08:37;14.43;79.24
66670;DHT22;53568;52.164;4.472;2022-10-31T09:11:03;14.31;79.89
66670;DHT22;53568;52.164;4.472;2022-10-31T09:13:29;14.36;79.80
66670;DHT22;53568;52.164;4.472;2022-10-31T09:15:56;14.35;79.61
66670;DHT22;53568;52.164;4.472;2022-10-31T09:18:23;14.29;79.96
66670;DHT22;53568;52.164;4.472;2022-10-31T09:20:49;14.31;80.20
66670;DHT22;53568;52.164;4.472;2022-10-31T09:23:19;14.28;80.42
66670;DHT22;53568;52.164;4.472;2022-10-31T09:25:45;14.39;80.35
66670;DHT22;53568;52.164;4.472;2022-10-31T09:28:13;14.33;80.63
66670;DHT22;53568;52.164;4.472;2022-10-31T09:30:39;14.59;80.46
66670;DHT22;53568;52.164;4.472;2022-10-31T09:33:15;14.72;80.04
66670;DHT22;53568;52.164;4.472;2022-10-31T09:35:40;14.80;79.94
66670;DHT22;53568;52.164;4.472;2022-10-31T09:38:10;14.73;80.24
66670;DHT22;53568;52.164;4.472;2022-10-31T09:40:44;14.89;80.00
66670;DHT22;53568;52.164;4.472;2022-10-31T09:46:13;14.95;79.88
66670;DHT22;53568;52.164;4.472;2022-10-31T09:49:16;15.07;79.30
66670;DHT22;53568;52.164;4.472;2022-10-31T09:51:37;15.07;79.53
66670;DHT22;53568;52.164;4.472;2022-10-31T09:54:17;15.11;79.45
66670;DHT22;53568;52.164;4.472;2022-10-31T09:56:44;15.16;79.30
66670;DHT22;53568;52.164;4.472;2022-10-31T09:59:28;15.19;79.10
66670;DHT22;53568;52.164;4.472;2022-10-31T10:02:05;15.13;79.37
66670;DHT22;53568;52.164;4.472;2022-10-31T10:04:55;15.27;79.31
66670;DHT22;53568;52.164;4.472;2022-10-31T10:07:44;15.33;79.23
66670;DHT22;53568;52.164;4.472;2022-10-31T10:10:45;15.36;79.08
66670;DHT22;53568;52.164;4.472;2022-10-31T10:13:24;15.51;78.82
66670;DHT22;53568;52.164;4.472;2022-10-31T10:32:48;16.01;77.94
66670;DHT22;53568;52.164;4.472;2022-10-31T10:35:27;16.12;77.93
66670;DHT22;53568;52.164;4.472;2022-10-31T10:38:10;16.16;77.83
66670;DHT22;53568;52.164;4.472;2022-10-31T10:40:37;16.26;77.37
66670;DHT22;53568;52.164;4.472;2022-10-31T10:48:56;16.48;76.62
66670;DHT22;53568;52.164;4.472;2022-10-31T10:51:51;16.35;77.10
66670;DHT22;53568;52.164;4.472;2022-10-31T10:54:17;16.29;77.51
66670;DHT22;53568;52.164;4.472;2022-10-31T10:56:47;16.33;77.31
66670;DHT22;53568;52.164;4.472;2022-10-31T10:59:20;16.42;77.05
66670;DHT22;53568;52.164;4.472;2022-10-31T11:01:48;16.48;76.77
66670;DHT22;53568;52.164;4.472;2022-10-31T11:04:33;16.55;76.81
66670;DHT22;53568;52.164;4.472;2022-10-31T11:07:04;16.55;76.75
66670;DHT22;53568;52.164;4.472;2022-10-31T11:09:31;16.60;76.65
66670;DHT22;53568;52.164;4.472;2022-10-31T11:11:58;16.62;76.51
66670;DHT22;53568;52.164;4.472;2022-10-31T11:14:24;16.66;76.58
66670;DHT22;53568;52.164;4.472;2022-10-31T11:17:06;16.63;76.81
66670;DHT22;53568;52.164;4.472;2022-10-31T11:19:33;16.62;76.85
66670;DHT22;53568;52.164;4.472;2022-10-31T11:22:08;16.65;76.95
66670;DHT22;53568;52.164;4.472;2022-10-31T11:24:41;16.69;76.82
66670;DHT22;53568;52.164;4.472;2022-10-31T11:27:20;16.76;76.77
66670;DHT22;53568;52.164;4.472;2022-10-31T11:29:46;16.84;76.46
66670;DHT22;53568;52.164;4.472;2022-10-31T11:32:20;16.80;76.84
66670;DHT22;53568;52.164;4.472;2022-10-31T11:34:53;16.86;76.66
66670;DHT22;53568;52.164;4.472;2022-10-31T11:37:24;16.79;76.91
66670;DHT22;53568;52.164;4.472;2022-10-31T11:39:56;16.90;76.82
66670;DHT22;53568;52.164;4.472;2022-10-31T11:42:29;17.06;76.55
66670;DHT22;53568;52.164;4.472;2022-10-31T11:45:12;17.17;76.30
66670;DHT22;53568;52.164;4.472;2022-10-31T11:47:43;17.26;75.91
66670;DHT22;53568;52.164;4.472;2022-10-31T11:50:14;17.34;75.93
66670;DHT22;53568;52.164;4.472;2022-10-31T11:52:43;17.38;75.93
66670;DHT22;53568;52.164;4.472;2022-10-31T11:57:51;17.27;76.51
66670;DHT22;53568;52.164;4.472;2022-10-31T12:00:22;17.46;75.95
66670;DHT22;53568;52.164;4.472;2022-10-31T12:02:49;17.51;75.66
66670;DHT22;53568;52.164;4.472;2022-10-31T12:05:21;17.63;75.09
66670;DHT22;53568;52.164;4.472;2022-10-31T12:07:48;17.66;75.13
66670;DHT22;53568;52.164;4.472;2022-10-31T12:10:15;17.67;74.87
66670;DHT22;53568;52.164;4.472;2022-10-31T12:24:09;17.51;74.62
66670;DHT22;53568;52.164;4.472;2022-10-31T12:27:01;17.50;74.74
66670;DHT22;53568;52.164;4.472;2022-10-31T12:41:17;17.57;75.22
66670;DHT22;53568;52.164;4.472;2022-10-31T12:46:21;17.74;74.67
66670;DHT22;53568;52.164;4.472;2022-10-31T12:57:39;17.94;74.49
66670;DHT22;53568;52.164;4.472;2022-10-31T13:00:18;18.04;74.11
66670;DHT22;53568;52.164;4.472;2022-10-31T13:05:37;18.21;73.68
66670;DHT22;53568;52.164;4.472;2022-10-31T13:16:07;18.00;74.44
66670;DHT22;53568;52.164;4.472;2022-10-31T13:18:42;17.98;74.44
66670;DHT22;53568;52.164;4.472;2022-10-31T13:21:17;17.95;74.32
66670;DHT22;53568;52.164;4.472;2022-10-31T13:23:48;17.91;74.44
66670;DHT22;53568;52.164;4.472;2022-10-31T13:26:42;17.91;74.65
66670;DHT22;53568;52.164;4.472;2022-10-31T13:29:11;17.92;74.51
66670;DHT22;53568;52.164;4.472;2022-10-31T13:31:41;17.90;74.77
66670;DHT22;53568;52.164;4.472;2022-10-31T13:37:29;17.82;75.32
66670;DHT22;53568;52.164;4.472;2022-10-31T13:40:23;17.78;75.40
66670;DHT22;53568;52.164;4.472;2022-10-31T13:45:26;17.74;75.69
66670;DHT22;53568;52.164;4.472;2022-10-31T13:48:00;17.71;75.77
66670;DHT22;53568;52.164;4.472;2022-10-31T13:50:31;17.67;76.17
66670;DHT22;53568;52.164;4.472;2022-10-31T13:53:12;17.64;76.31
66670;DHT22;53568;52.164;4.472;2022-10-31T13:55:44;17.63;76.54
66670;DHT22;53568;52.164;4.472;2022-10-31T13:58:28;17.58;76.38
66670;DHT22;53568;52.164;4.472;2022-10-31T14:03:38;17.54;76.86
66670;DHT22;53568;52.164;4.472;2022-10-31T14:06:07;17.53;77.06
66670;DHT22;53568;52.164;4.472;2022-10-31T14:08:42;17.47;77.14
66670;DHT22;53568;52.164;4.472;2022-10-31T14:11:23;17.51;77.13
66670;DHT22;53568;52.164;4.472;2022-10-31T14:13:50;17.53;77.25
66670;DHT22;53568;52.164;4.472;2022-10-31T14:16:28;17.61;77.15
66670;DHT22;53568;52.164;4.472;2022-10-31T14:19:05;17.63;76.94
66670;DHT22;53568;52.164;4.472;2022-10-31T14:21:38;17.63;76.91
66670;DHT22;53568;52.164;4.472;2022-10-31T14:26:58;17.58;76.98
66670;DHT22;53568;52.164;4.472;2022-10-31T14:29:28;17.61;76.95
66670;DHT22;53568;52.164;4.472;2022-10-31T14:32:11;17.55;77.05
66670;DHT22;53568;52.164;4.472;2022-10-31T14:34:42;17.50;77.34
66670;DHT22;53568;52.164;4.472;2022-10-31T14:53:26;17.47;77.86
66670;DHT22;53568;52.164;4.472;2022-10-31T14:55:54;17.53;77.93
66670;DHT22;53568;52.164;4.472;2022-10-31T14:58:25;17.44;77.95
66670;DHT22;53568;52.164;4.472;2022-10-31T15:00:56;17.43;78.09
66670;DHT22;53568;52.164;4.472;2022-10-31T15:05:53;17.37;78.41
66670;DHT22;53568;52.164;4.472;2022-10-31T15:08:37;17.41;78.41
66670;DHT22;53568;52.164;4.472;2022-10-31T15:13:57;17.41;78.27
66670;DHT22;53568;52.164;4.472;2022-10-31T15:16:34;17.43;78.17
66670;DHT22;53568;52.164;4.472;2022-10-31T15:19:11;17.46;77.86
66670;DHT22;53568;52.164;4.472;2022-10-31T15:21:43;17.43;78.02
66670;DHT22;53568;52.164;4.472;2022-10-31T15:24:13;17.40;78.09
66670;DHT22;53568;52.164;4.472;2022-10-31T15:26:47;17.43;77.96
66670;DHT22;53568;52.164;4.472;2022-10-31T15:29:16;17.46;77.92
66670;DHT22;53568;52.164;4.472;2022-10-31T15:32:01;17.44;78.00
66670;DHT22;53568;52.164;4.472;2022-10-31T15:36:58;17.44;78.25
66670;DHT22;53568;52.164;4.472;2022-10-31T15:39:24;17.41;78.38
66670;DHT22;53568;52.164;4.472;2022-10-31T15:41:55;17.38;78.50
66670;DHT22;53568;52.164;4.472;2022-10-31T15:44:26;17.38;78.31
66670;DHT22;53568;52.164;4.472;2022-10-31T15:47:17;17.30;78.36
66670;DHT22;53568;52.164;4.472;2022-10-31T15:49:58;17.28;78.52
66670;DHT22;53568;52.164;4.472;2022-10-31T15:52:39;17.27;78.64
66670;DHT22;53568;52.164;4.472;2022-10-31T15:57:48;17.26;78.66
66670;DHT22;53568;52.164;4.472;2022-10-31T16:00:38;17.30;78.40
66670;DHT22;53568;52.164;4.472;2022-10-31T16:03:07;17.30;78.22
66670;DHT22;53568;52.164;4.472;2022-10-31T16:05:38;17.28;78.25
66670;DHT22;53568;52.164;4.472;2022-10-31T16:10:58;17.26;78.12
66670;DHT22;53568;52.164;4.472;2022-10-31T16:13:30;17.23;78.07
66670;DHT22;53568;52.164;4.472;2022-10-31T16:16:00;17.17;78.25
66670;DHT22;53568;52.164;4.472;2022-10-31T16:18:29;17.17;78.21
66670;DHT22;53568;52.164;4.472;2022-10-31T16:20:56;17.14;78.26
66670;DHT22;53568;52.164;4.472;2022-10-31T16:23:25;17.10;78.36
66670;DHT22;53568;52.164;4.472;2022-10-31T16:25:52;17.12;78.54
66670;DHT22;53568;52.164;4.472;2022-10-31T16:28:23;17.13;78.35
66670;DHT22;53568;52.164;4.472;2022-10-31T16:30:55;17.09;78.43
66670;DHT22;53568;52.164;4.472;2022-10-31T16:33:31;17.10;78.51
66670;DHT22;53568;52.164;4.472;2022-10-31T16:35:59;17.07;78.57
66670;DHT22;53568;52.164;4.472;2022-10-31T16:38:27;17.04;78.64
66670;DHT22;53568;52.164;4.472;2022-10-31T16:40:53;17.06;78.47
66670;DHT22;53568;52.164;4.472;2022-10-31T16:43:20;17.03;78.51
66670;DHT22;53568;52.164;4.472;2022-10-31T16:45:50;17.04;78.55
66670;DHT22;53568;52.164;4.472;2022-10-31T16:48:18;16.96;78.61
66670;DHT22;53568;52.164;4.472;2022-10-31T16:50:46;17.03;78.56
66670;DHT22;53568;52.164;4.472;2022-10-31T16:53:13;16.96;78.61
66670;DHT22;53568;52.164;4.472;2022-10-31T16:55:57;16.99;78.66
66670;DHT22;53568;52.164;4.472;2022-10-31T16:58:34;16.94;78.84
66670;DHT22;53568;52.164;4.472;2022-10-31T17:01:02;17.00;78.63
66670;DHT22;53568;52.164;4.472;2022-10-31T17:03:29;17.00;78.67
66670;DHT22;53568;52.164;4.472;2022-10-31T17:05:56;17.04;78.57
66670;DHT22;53568;52.164;4.472;2022-10-31T17:08:22;16.99;78.70
66670;DHT22;53568;52.164;4.472;2022-10-31T17:10:54;17.04;78.50
66670;DHT22;53568;52.164;4.472;2022-10-31T17:13:24;17.07;78.58
66670;DHT22;53568;52.164;4.472;2022-10-31T17:15:53;17.07;78.42
66670;DHT22;53568;52.164;4.472;2022-10-31T17:18:19;17.04;78.51
66670;DHT22;53568;52.164;4.472;2022-10-31T17:20:46;16.99;78.52
66670;DHT22;53568;52.164;4.472;2022-10-31T17:23:14;16.96;78.82
66670;DHT22;53568;52.164;4.472;2022-10-31T17:25:41;16.94;78.97
66670;DHT22;53568;52.164;4.472;2022-10-31T17:28:11;16.92;78.90
66670;DHT22;53568;52.164;4.472;2022-10-31T17:30:39;16.89;78.96
66670;DHT22;53568;52.164;4.472;2022-10-31T17:33:05;16.87;79.17
66670;DHT22;53568;52.164;4.472;2022-10-31T17:35:31;16.87;79.21
66670;DHT22;53568;52.164;4.472;2022-10-31T17:37:56;16.87;79.29
66670;DHT22;53568;52.164;4.472;2022-10-31T17:40:22;16.92;79.19
66670;DHT22;53568;52.164;4.472;2022-10-31T17:42:53;16.93;78.89
66670;DHT22;53568;52.164;4.472;2022-10-31T17:45:19;16.94;78.72
66670;DHT22;53568;52.164;4.472;2022-10-31T17:47:49;16.92;78.78
66670;DHT22;53568;52.164;4.472;2022-10-31T17:50:16;16.92;78.82
66670;DHT22;53568;52.164;4.472;2022-10-31T17:52:42;16.93;78.81
66670;DHT22;53568;52.164;4.472;2022-10-31T17:55:08;16.93;78.90
66670;DHT22;53568;52.164;4.472;2022-10-31T17:57:35;16.94;78.66
66670;DHT22;53568;52.164;4.472;2022-10-31T18:00:03;16.93;78.59
66670;DHT22;53568;52.164;4.472;2022-10-31T18:02:29;16.90;78.51
66670;DHT22;53568;52.164;4.472;2022-10-31T18:04:54;16.92;78.54
66670;DHT22;53568;52.164;4.472;2022-10-31T18:07:20;16.93;78.34
66670;DHT22;53568;52.164;4.472;2022-10-31T18:09:46;16.93;78.26
66670;DHT22;53568;52.164;4.472;2022-10-31T18:12:13;16.90;78.16
66670;DHT22;53568;52.164;4.472;2022-10-31T18:14:41;16.94;77.98
66670;DHT22;53568;52.164;4.472;2022-10-31T18:17:07;16.86;78.16